Itubera Airport


Codes: SNZW/ITE
Name: Itubera Airport
City: Itubera
Country: Brazil
Elevation: 13 ft.

Photos at Itubera Airport


   Photos courtesy of SpottingLog. You can add your own sightings and photos by signing up for a free trial today.



No photos found.

Weather at Itubera Airport


Time (UTC)DescriptionTempratureWindCloud coverageVisibilityPressureHumidity
26-Jun-2024 00:00Scattered Clouds21°C2 mph, S28%10000m1018hPa96%
26-Jun-2024 03:00Scattered Clouds21°C2 mph, SW48%10000m1018hPa97%
26-Jun-2024 06:00Broken Clouds20°C2 mph, SW52%10000m1017hPa97%
26-Jun-2024 09:00Overcast Clouds20°C2 mph, SW87%10000m1018hPa97%
26-Jun-2024 12:00Light Rain24°C4 mph, SE80%10000m1020hPa79%
26-Jun-2024 15:00Light Rain25°C4 mph, SE31%10000m1018hPa73%
26-Jun-2024 18:00Light Rain26°C7 mph, SE42%10000m1015hPa58%
26-Jun-2024 21:00Scattered Clouds20°C2 mph, SE28%10000m1016hPa88%
27-Jun-2024 00:00Few Clouds19°C2 mph, SW17%10000m1018hPa94%
27-Jun-2024 03:00Clear Sky19°C2 mph, SW3%10000m1017hPa95%
27-Jun-2024 06:00Few Clouds18°C2 mph, W12%10000m1016hPa95%
27-Jun-2024 09:00Scattered Clouds17°C4 mph, W29%10000m1016hPa99%
27-Jun-2024 12:00Few Clouds25°C0 mph, N22%10000m1018hPa66%
27-Jun-2024 15:00Few Clouds28°C4 mph, E22%10000m1015hPa51%
27-Jun-2024 18:00Scattered Clouds27°C7 mph, E27%10000m1012hPa56%
27-Jun-2024 21:00Broken Clouds20°C2 mph, E74%10000m1014hPa90%
28-Jun-2024 00:00Scattered Clouds19°C2 mph, NW43%10000m1016hPa93%
28-Jun-2024 03:00Clear Sky18°C2 mph, NW8%10000m1015hPa98%
28-Jun-2024 06:00Few Clouds18°C2 mph, W16%10000m1014hPa100%
28-Jun-2024 09:00Few Clouds18°C2 mph, W24%10000m1016hPa100%
28-Jun-2024 12:00Scattered Clouds24°C0 mph, NE46%10000m1018hPa73%
28-Jun-2024 15:00Overcast Clouds26°C4 mph, E90%10000m1016hPa66%
28-Jun-2024 18:00Broken Clouds26°C4 mph, E63%10000m1014hPa61%
28-Jun-2024 21:00Clear Sky20°C2 mph, SE8%10000m1015hPa89%
29-Jun-2024 00:00Clear Sky19°C0 mph, NW4%10000m1017hPa94%
29-Jun-2024 03:00Clear Sky18°C2 mph, W7%10000m1017hPa96%
29-Jun-2024 06:00Few Clouds18°C2 mph, W12%10000m1016hPa98%
29-Jun-2024 09:00Broken Clouds17°C2 mph, W53%10000m1017hPa100%
29-Jun-2024 12:00Scattered Clouds25°C2 mph, NW47%10000m1018hPa70%
29-Jun-2024 15:00Few Clouds28°C4 mph, E12%10000m1016hPa50%
29-Jun-2024 18:00Clear Sky27°C7 mph, E7%10000m1014hPa59%
29-Jun-2024 21:00Clear Sky20°C2 mph, NE1%10000m1016hPa96%
30-Jun-2024 00:00Few Clouds19°C2 mph, NW12%10000m1017hPa97%
30-Jun-2024 03:00Scattered Clouds19°C2 mph, NW38%10000m1017hPa99%
30-Jun-2024 06:00Broken Clouds18°C2 mph, W51%10000m1016hPa99%
30-Jun-2024 09:00Scattered Clouds17°C2 mph, NW40%10000m1017hPa98%
30-Jun-2024 12:00Scattered Clouds24°C4 mph, N28%10000m1018hPa69%
30-Jun-2024 15:00Broken Clouds28°C4 mph, NE56%10000m1016hPa50%
30-Jun-2024 18:00Scattered Clouds27°C7 mph, E39%10000m1014hPa54%
30-Jun-2024 21:00Overcast Clouds20°C2 mph, E91%10000m1016hPa91%